sensor_id;sensor_type;location;lat;lon;timestamp;P1;durP1;ratioP1;P2;durP2;ratioP2
45073;SDS011;31570;51.688;5.860;2022-11-15T00:01:14;6.03;;;4.03;;
45073;SDS011;31570;51.688;5.860;2022-11-15T00:04:01;5.10;;;4.25;;
45073;SDS011;31570;51.688;5.860;2022-11-15T00:06:46;5.53;;;3.83;;
45073;SDS011;31570;51.688;5.860;2022-11-15T00:09:31;4.25;;;3.65;;
45073;SDS011;31570;51.688;5.860;2022-11-15T00:12:16;5.07;;;3.60;;
45073;SDS011;31570;51.688;5.860;2022-11-15T00:15:01;4.63;;;3.58;;
45073;SDS011;31570;51.688;5.860;2022-11-15T00:17:48;6.80;;;4.50;;
45073;SDS011;31570;51.688;5.860;2022-11-15T00:20:33;5.57;;;3.78;;
45073;SDS011;31570;51.688;5.860;2022-11-15T00:23:19;5.65;;;3.65;;
45073;SDS011;31570;51.688;5.860;2022-11-15T00:26:04;4.55;;;3.40;;
45073;SDS011;31570;51.688;5.860;2022-11-15T00:28:51;6.80;;;3.83;;
45073;SDS011;31570;51.688;5.860;2022-11-15T00:31:36;5.20;;;3.65;;
45073;SDS011;31570;51.688;5.860;2022-11-15T00:34:21;5.53;;;4.38;;
45073;SDS011;31570;51.688;5.860;2022-11-15T00:37:06;4.97;;;3.72;;
45073;SDS011;31570;51.688;5.860;2022-11-15T00:39:54;6.72;;;3.72;;
45073;SDS011;31570;51.688;5.860;2022-11-15T00:42:39;4.38;;;3.35;;
45073;SDS011;31570;51.688;5.860;2022-11-15T00:45:25;4.85;;;3.85;;
45073;SDS011;31570;51.688;5.860;2022-11-15T00:48:10;6.30;;;3.90;;
45073;SDS011;31570;51.688;5.860;2022-11-15T00:50:55;5.28;;;3.95;;
45073;SDS011;31570;51.688;5.860;2022-11-15T00:53:40;4.50;;;3.58;;
45073;SDS011;31570;51.688;5.860;2022-11-15T00:56:24;6.05;;;3.55;;
45073;SDS011;31570;51.688;5.860;2022-11-15T00:59:09;5.65;;;3.53;;
45073;SDS011;31570;51.688;5.860;2022-11-15T01:01:54;4.25;;;3.50;;
45073;SDS011;31570;51.688;5.860;2022-11-15T01:04:39;5.05;;;3.63;;
45073;SDS011;31570;51.688;5.860;2022-11-15T01:07:24;4.88;;;3.20;;
45073;SDS011;31570;51.688;5.860;2022-11-15T01:10:09;4.93;;;3.47;;
45073;SDS011;31570;51.688;5.860;2022-11-15T01:12:54;4.55;;;3.45;;
45073;SDS011;31570;51.688;5.860;2022-11-15T01:15:40;4.55;;;3.47;;
45073;SDS011;31570;51.688;5.860;2022-11-15T01:18:26;5.32;;;3.53;;
45073;SDS011;31570;51.688;5.860;2022-11-15T01:21:12;5.55;;;3.90;;
45073;SDS011;31570;51.688;5.860;2022-11-15T01:24:01;4.35;;;3.30;;
45073;SDS011;31570;51.688;5.860;2022-11-15T01:26:45;5.22;;;3.75;;
45073;SDS011;31570;51.688;5.860;2022-11-15T01:29:30;4.85;;;3.78;;
45073;SDS011;31570;51.688;5.860;2022-11-15T01:32:16;6.72;;;3.70;;
45073;SDS011;31570;51.688;5.860;2022-11-15T01:35:04;4.60;;;3.58;;
45073;SDS011;31570;51.688;5.860;2022-11-15T01:37:49;4.22;;;3.00;;
45073;SDS011;31570;51.688;5.860;2022-11-15T01:40:34;4.85;;;3.50;;
45073;SDS011;31570;51.688;5.860;2022-11-15T01:43:23;4.25;;;3.20;;
45073;SDS011;31570;51.688;5.860;2022-11-15T01:49:21;4.43;;;3.38;;
45073;SDS011;31570;51.688;5.860;2022-11-15T01:52:09;5.43;;;3.28;;
45073;SDS011;31570;51.688;5.860;2022-11-15T01:55:10;4.45;;;3.47;;
45073;SDS011;31570;51.688;5.860;2022-11-15T01:57:59;5.40;;;3.10;;
45073;SDS011;31570;51.688;5.860;2022-11-15T02:00:48;4.82;;;3.30;;
45073;SDS011;31570;51.688;5.860;2022-11-15T02:03:41;4.72;;;3.30;;
45073;SDS011;31570;51.688;5.860;2022-11-15T02:06:33;3.83;;;3.00;;
45073;SDS011;31570;51.688;5.860;2022-11-15T02:09:20;4.47;;;3.42;;
45073;SDS011;31570;51.688;5.860;2022-11-15T02:12:05;4.32;;;3.33;;
45073;SDS011;31570;51.688;5.860;2022-11-15T02:14:53;4.47;;;3.08;;
45073;SDS011;31570;51.688;5.860;2022-11-15T02:17:46;4.35;;;3.15;;
45073;SDS011;31570;51.688;5.860;2022-11-15T02:20:41;4.85;;;3.38;;
45073;SDS011;31570;51.688;5.860;2022-11-15T02:23:46;3.88;;;3.03;;
45073;SDS011;31570;51.688;5.860;2022-11-15T02:26:45;4.55;;;3.33;;
45073;SDS011;31570;51.688;5.860;2022-11-15T02:33:39;4.05;;;3.10;;
45073;SDS011;31570;51.688;5.860;2022-11-15T02:36:34;3.95;;;2.80;;
45073;SDS011;31570;51.688;5.860;2022-11-15T02:39:35;3.78;;;3.05;;
45073;SDS011;31570;51.688;5.860;2022-11-15T02:42:30;3.92;;;2.92;;
45073;SDS011;31570;51.688;5.860;2022-11-15T02:45:44;3.97;;;2.97;;
45073;SDS011;31570;51.688;5.860;2022-11-15T02:48:34;3.88;;;2.85;;
45073;SDS011;31570;51.688;5.860;2022-11-15T02:51:20;4.72;;;3.13;;
45073;SDS011;31570;51.688;5.860;2022-11-15T02:54:06;4.40;;;2.97;;
45073;SDS011;31570;51.688;5.860;2022-11-15T02:56:52;4.78;;;2.78;;
45073;SDS011;31570;51.688;5.860;2022-11-15T02:59:58;4.30;;;3.28;;
45073;SDS011;31570;51.688;5.860;2022-11-15T03:05:56;3.70;;;3.22;;
45073;SDS011;31570;51.688;5.860;2022-11-15T03:08:48;4.60;;;2.85;;
45073;SDS011;31570;51.688;5.860;2022-11-15T03:11:43;3.60;;;3.00;;
45073;SDS011;31570;51.688;5.860;2022-11-15T03:14:35;3.53;;;2.63;;
45073;SDS011;31570;51.688;5.860;2022-11-15T03:18:04;3.60;;;2.85;;
45073;SDS011;31570;51.688;5.860;2022-11-15T03:20:48;3.95;;;2.80;;
45073;SDS011;31570;51.688;5.860;2022-11-15T03:23:36;3.67;;;2.80;;
45073;SDS011;31570;51.688;5.860;2022-11-15T03:26:23;3.50;;;2.72;;
45073;SDS011;31570;51.688;5.860;2022-11-15T03:29:53;3.42;;;2.60;;
45073;SDS011;31570;51.688;5.860;2022-11-15T03:35:09;4.25;;;3.00;;
45073;SDS011;31570;51.688;5.860;2022-11-15T03:41:07;4.25;;;2.65;;
45073;SDS011;31570;51.688;5.860;2022-11-15T03:44:13;4.53;;;2.97;;
45073;SDS011;31570;51.688;5.860;2022-11-15T03:50:18;3.42;;;2.85;;
45073;SDS011;31570;51.688;5.860;2022-11-15T03:53:05;4.07;;;3.00;;
45073;SDS011;31570;51.688;5.860;2022-11-15T03:55:50;3.33;;;2.72;;
45073;SDS011;31570;51.688;5.860;2022-11-15T03:58:35;4.07;;;2.80;;
45073;SDS011;31570;51.688;5.860;2022-11-15T04:01:20;3.22;;;2.55;;
45073;SDS011;31570;51.688;5.860;2022-11-15T04:04:05;3.47;;;2.53;;
45073;SDS011;31570;51.688;5.860;2022-11-15T04:06:50;4.32;;;2.95;;
45073;SDS011;31570;51.688;5.860;2022-11-15T04:09:36;4.22;;;3.20;;
45073;SDS011;31570;51.688;5.860;2022-11-15T04:12:44;4.20;;;2.55;;
45073;SDS011;31570;51.688;5.860;2022-11-15T04:15:35;3.92;;;2.88;;
45073;SDS011;31570;51.688;5.860;2022-11-15T04:18:20;4.38;;;2.90;;
45073;SDS011;31570;51.688;5.860;2022-11-15T04:21:05;3.90;;;2.95;;
45073;SDS011;31570;51.688;5.860;2022-11-15T04:24:09;3.25;;;2.40;;
45073;SDS011;31570;51.688;5.860;2022-11-15T04:26:56;3.28;;;2.55;;
45073;SDS011;31570;51.688;5.860;2022-11-15T04:29:42;3.80;;;2.75;;
45073;SDS011;31570;51.688;5.860;2022-11-15T04:32:27;3.80;;;2.72;;
45073;SDS011;31570;51.688;5.860;2022-11-15T04:35:12;3.92;;;2.72;;
45073;SDS011;31570;51.688;5.860;2022-11-15T04:37:57;4.72;;;2.92;;
45073;SDS011;31570;51.688;5.860;2022-11-15T04:40:43;4.57;;;2.97;;
45073;SDS011;31570;51.688;5.860;2022-11-15T04:43:28;4.68;;;2.90;;
45073;SDS011;31570;51.688;5.860;2022-11-15T04:46:14;4.65;;;2.92;;
45073;SDS011;31570;51.688;5.860;2022-11-15T04:49:02;3.83;;;2.90;;
45073;SDS011;31570;51.688;5.860;2022-11-15T04:51:47;5.05;;;3.13;;
45073;SDS011;31570;51.688;5.860;2022-11-15T04:54:32;4.22;;;2.83;;
45073;SDS011;31570;51.688;5.860;2022-11-15T04:57:17;3.92;;;2.60;;
45073;SDS011;31570;51.688;5.860;2022-11-15T05:00:06;3.22;;;2.58;;
45073;SDS011;31570;51.688;5.860;2022-11-15T05:02:53;3.08;;;2.42;;
45073;SDS011;31570;51.688;5.860;2022-11-15T05:05:57;3.58;;;2.80;;
45073;SDS011;31570;51.688;5.860;2022-11-15T05:08:43;3.47;;;2.58;;
45073;SDS011;31570;51.688;5.860;2022-11-15T05:11:28;2.75;;;2.13;;
45073;SDS011;31570;51.688;5.860;2022-11-15T05:14:13;4.25;;;2.65;;
45073;SDS011;31570;51.688;5.860;2022-11-15T05:16:58;3.08;;;2.30;;
45073;SDS011;31570;51.688;5.860;2022-11-15T05:19:44;2.90;;;2.35;;
45073;SDS011;31570;51.688;5.860;2022-11-15T05:22:29;2.83;;;2.25;;
45073;SDS011;31570;51.688;5.860;2022-11-15T05:25:14;3.78;;;3.10;;
45073;SDS011;31570;51.688;5.860;2022-11-15T05:28:00;4.30;;;2.45;;
45073;SDS011;31570;51.688;5.860;2022-11-15T05:30:45;4.10;;;2.92;;
45073;SDS011;31570;51.688;5.860;2022-11-15T05:33:30;3.78;;;2.70;;
45073;SDS011;31570;51.688;5.860;2022-11-15T05:36:34;4.05;;;2.40;;
45073;SDS011;31570;51.688;5.860;2022-11-15T05:39:21;3.80;;;2.42;;
45073;SDS011;31570;51.688;5.860;2022-11-15T05:42:08;3.63;;;2.50;;
45073;SDS011;31570;51.688;5.860;2022-11-15T05:44:58;3.80;;;2.47;;
45073;SDS011;31570;51.688;5.860;2022-11-15T05:47:46;3.92;;;2.50;;
45073;SDS011;31570;51.688;5.860;2022-11-15T05:50:36;3.50;;;2.50;;
45073;SDS011;31570;51.688;5.860;2022-11-15T05:53:26;3.63;;;2.35;;
45073;SDS011;31570;51.688;5.860;2022-11-15T05:56:11;3.60;;;2.30;;
45073;SDS011;31570;51.688;5.860;2022-11-15T05:58:58;3.22;;;2.67;;
45073;SDS011;31570;51.688;5.860;2022-11-15T06:01:44;2.85;;;2.20;;
45073;SDS011;31570;51.688;5.860;2022-11-15T06:04:29;3.42;;;2.67;;
45073;SDS011;31570;51.688;5.860;2022-11-15T06:07:14;2.90;;;2.45;;
45073;SDS011;31570;51.688;5.860;2022-11-15T06:10:00;3.40;;;2.38;;
45073;SDS011;31570;51.688;5.860;2022-11-15T06:12:55;3.97;;;2.70;;
45073;SDS011;31570;51.688;5.860;2022-11-15T06:16:15;3.80;;;2.60;;
45073;SDS011;31570;51.688;5.860;2022-11-15T06:19:00;3.05;;;1.92;;
45073;SDS011;31570;51.688;5.860;2022-11-15T06:21:45;2.92;;;2.22;;
45073;SDS011;31570;51.688;5.860;2022-11-15T06:24:30;2.85;;;2.30;;
45073;SDS011;31570;51.688;5.860;2022-11-15T06:27:15;3.03;;;2.22;;
45073;SDS011;31570;51.688;5.860;2022-11-15T06:30:00;3.30;;;2.80;;
45073;SDS011;31570;51.688;5.860;2022-11-15T06:32:45;3.33;;;2.28;;
45073;SDS011;31570;51.688;5.860;2022-11-15T06:35:32;2.80;;;2.05;;
45073;SDS011;31570;51.688;5.860;2022-11-15T06:38:18;3.20;;;2.30;;
45073;SDS011;31570;51.688;5.860;2022-11-15T06:41:08;4.82;;;2.53;;
45073;SDS011;31570;51.688;5.860;2022-11-15T06:43:54;2.90;;;2.40;;
45073;SDS011;31570;51.688;5.860;2022-11-15T06:46:39;2.88;;;2.20;;
45073;SDS011;31570;51.688;5.860;2022-11-15T06:49:30;3.22;;;2.30;;
45073;SDS011;31570;51.688;5.860;2022-11-15T06:52:15;2.88;;;2.28;;
45073;SDS011;31570;51.688;5.860;2022-11-15T06:55:03;3.03;;;2.28;;
45073;SDS011;31570;51.688;5.860;2022-11-15T06:57:49;4.45;;;2.75;;
45073;SDS011;31570;51.688;5.860;2022-11-15T07:00:37;2.97;;;2.17;;
45073;SDS011;31570;51.688;5.860;2022-11-15T07:03:25;3.03;;;1.90;;
45073;SDS011;31570;51.688;5.860;2022-11-15T07:06:11;2.60;;;1.95;;
45073;SDS011;31570;51.688;5.860;2022-11-15T07:08:57;4.32;;;2.70;;
45073;SDS011;31570;51.688;5.860;2022-11-15T07:11:46;3.85;;;2.58;;
45073;SDS011;31570;51.688;5.860;2022-11-15T07:14:34;3.05;;;2.13;;
45073;SDS011;31570;51.688;5.860;2022-11-15T07:17:24;3.72;;;2.40;;
45073;SDS011;31570;51.688;5.860;2022-11-15T07:20:10;3.55;;;2.47;;
45073;SDS011;31570;51.688;5.860;2022-11-15T07:23:00;4.63;;;2.40;;
45073;SDS011;31570;51.688;5.860;2022-11-15T07:25:47;3.45;;;2.30;;
45073;SDS011;31570;51.688;5.860;2022-11-15T07:28:32;3.88;;;2.20;;
45073;SDS011;31570;51.688;5.860;2022-11-15T07:31:20;2.70;;;1.85;;
45073;SDS011;31570;51.688;5.860;2022-11-15T07:34:09;2.78;;;2.10;;
45073;SDS011;31570;51.688;5.860;2022-11-15T07:36:54;3.25;;;2.40;;
45073;SDS011;31570;51.688;5.860;2022-11-15T07:39:40;2.97;;;2.35;;
45073;SDS011;31570;51.688;5.860;2022-11-15T07:42:30;3.13;;;2.25;;
45073;SDS011;31570;51.688;5.860;2022-11-15T07:45:39;3.35;;;2.25;;
45073;SDS011;31570;51.688;5.860;2022-11-15T07:48:26;4.25;;;2.17;;
45073;SDS011;31570;51.688;5.860;2022-11-15T07:51:27;2.63;;;2.05;;
45073;SDS011;31570;51.688;5.860;2022-11-15T07:54:12;2.75;;;1.98;;
45073;SDS011;31570;51.688;5.860;2022-11-15T07:56:57;2.72;;;2.10;;
45073;SDS011;31570;51.688;5.860;2022-11-15T07:59:49;3.05;;;2.00;;
45073;SDS011;31570;51.688;5.860;2022-11-15T08:02:34;2.83;;;2.35;;
45073;SDS011;31570;51.688;5.860;2022-11-15T08:05:20;3.10;;;2.50;;
45073;SDS011;31570;51.688;5.860;2022-11-15T08:08:07;2.60;;;2.08;;
45073;SDS011;31570;51.688;5.860;2022-11-15T08:10:59;2.50;;;1.97;;
45073;SDS011;31570;51.688;5.860;2022-11-15T08:13:44;2.63;;;2.05;;
45073;SDS011;31570;51.688;5.860;2022-11-15T08:16:29;2.75;;;1.80;;
45073;SDS011;31570;51.688;5.860;2022-11-15T08:19:14;3.65;;;2.13;;
45073;SDS011;31570;51.688;5.860;2022-11-15T08:22:00;3.40;;;2.10;;
45073;SDS011;31570;51.688;5.860;2022-11-15T08:27:44;5.22;;;2.10;;
45073;SDS011;31570;51.688;5.860;2022-11-15T08:30:35;3.60;;;2.00;;
45073;SDS011;31570;51.688;5.860;2022-11-15T08:33:22;4.30;;;2.22;;
45073;SDS011;31570;51.688;5.860;2022-11-15T08:36:11;3.50;;;2.25;;
45073;SDS011;31570;51.688;5.860;2022-11-15T08:39:00;2.70;;;1.88;;
45073;SDS011;31570;51.688;5.860;2022-11-15T08:41:54;3.13;;;2.20;;
45073;SDS011;31570;51.688;5.860;2022-11-15T08:44:44;3.13;;;1.95;;
45073;SDS011;31570;51.688;5.860;2022-11-15T08:47:29;2.90;;;2.00;;
45073;SDS011;31570;51.688;5.860;2022-11-15T08:50:15;3.08;;;2.00;;
45073;SDS011;31570;51.688;5.860;2022-11-15T08:53:04;2.85;;;1.95;;
45073;SDS011;31570;51.688;5.860;2022-11-15T08:55:51;4.18;;;1.90;;
45073;SDS011;31570;51.688;5.860;2022-11-15T08:58:36;2.75;;;1.95;;
45073;SDS011;31570;51.688;5.860;2022-11-15T09:01:23;5.72;;;2.22;;
45073;SDS011;31570;51.688;5.860;2022-11-15T09:04:09;4.32;;;1.88;;
45073;SDS011;31570;51.688;5.860;2022-11-15T09:06:54;2.70;;;1.88;;
45073;SDS011;31570;51.688;5.860;2022-11-15T09:09:39;2.50;;;1.83;;
45073;SDS011;31570;51.688;5.860;2022-11-15T09:12:24;3.85;;;1.80;;
45073;SDS011;31570;51.688;5.860;2022-11-15T09:15:10;5.50;;;2.00;;
45073;SDS011;31570;51.688;5.860;2022-11-15T09:17:58;2.55;;;1.80;;
45073;SDS011;31570;51.688;5.860;2022-11-15T09:20:44;3.35;;;2.08;;
45073;SDS011;31570;51.688;5.860;2022-11-15T09:23:29;3.30;;;2.10;;
45073;SDS011;31570;51.688;5.860;2022-11-15T09:26:17;3.42;;;2.03;;
45073;SDS011;31570;51.688;5.860;2022-11-15T09:29:03;2.47;;;1.70;;
45073;SDS011;31570;51.688;5.860;2022-11-15T09:31:53;2.50;;;1.77;;
45073;SDS011;31570;51.688;5.860;2022-11-15T09:34:40;3.20;;;1.67;;
45073;SDS011;31570;51.688;5.860;2022-11-15T09:37:25;2.97;;;1.50;;
45073;SDS011;31570;51.688;5.860;2022-11-15T09:40:11;3.38;;;1.75;;
45073;SDS011;31570;51.688;5.860;2022-11-15T09:49:21;2.95;;;1.83;;
45073;SDS011;31570;51.688;5.860;2022-11-15T09:52:15;2.03;;;1.55;;
45073;SDS011;31570;51.688;5.860;2022-11-15T09:54:43;2.92;;;1.50;;
45073;SDS011;31570;51.688;5.860;2022-11-15T09:57:21;2.47;;;1.65;;
45073;SDS011;31570;51.688;5.860;2022-11-15T10:05:30;2.92;;;1.67;;
45073;SDS011;31570;51.688;5.860;2022-11-15T10:08:06;2.53;;;1.63;;
45073;SDS011;31570;51.688;5.860;2022-11-15T10:11:00;2.95;;;1.75;;
45073;SDS011;31570;51.688;5.860;2022-11-15T10:24:46;2.75;;;1.50;;
45073;SDS011;31570;51.688;5.860;2022-11-15T10:27:15;2.20;;;1.55;;
45073;SDS011;31570;51.688;5.860;2022-11-15T10:29:44;5.78;;;2.08;;
45073;SDS011;31570;51.688;5.860;2022-11-15T10:32:19;1.65;;;1.25;;
45073;SDS011;31570;51.688;5.860;2022-11-15T10:34:48;2.20;;;1.50;;
45073;SDS011;31570;51.688;5.860;2022-11-15T10:37:24;2.60;;;1.80;;
45073;SDS011;31570;51.688;5.860;2022-11-15T10:40:12;3.42;;;1.63;;
45073;SDS011;31570;51.688;5.860;2022-11-15T10:42:42;2.85;;;1.63;;
45073;SDS011;31570;51.688;5.860;2022-11-15T10:45:44;2.25;;;1.30;;
45073;SDS011;31570;51.688;5.860;2022-11-15T10:50:40;3.20;;;1.88;;
45073;SDS011;31570;51.688;5.860;2022-11-15T10:53:27;1.88;;;1.27;;
45073;SDS011;31570;51.688;5.860;2022-11-15T10:55:59;4.47;;;2.15;;
45073;SDS011;31570;51.688;5.860;2022-11-15T11:01:17;2.42;;;1.30;;
45073;SDS011;31570;51.688;5.860;2022-11-15T11:06:27;4.68;;;1.63;;
45073;SDS011;31570;51.688;5.860;2022-11-15T11:09:02;1.95;;;1.52;;
45073;SDS011;31570;51.688;5.860;2022-11-15T11:11:44;6.28;;;2.40;;
45073;SDS011;31570;51.688;5.860;2022-11-15T11:14:20;2.42;;;1.90;;
45073;SDS011;31570;51.688;5.860;2022-11-15T11:25:33;3.75;;;1.90;;
45073;SDS011;31570;51.688;5.860;2022-11-15T11:28:48;2.60;;;1.50;;
45073;SDS011;31570;51.688;5.860;2022-11-15T11:34:15;1.98;;;1.30;;
45073;SDS011;31570;51.688;5.860;2022-11-15T11:36:59;3.30;;;1.48;;
45073;SDS011;31570;51.688;5.860;2022-11-15T11:50:37;3.35;;;1.52;;
45073;SDS011;31570;51.688;5.860;2022-11-15T11:53:12;1.88;;;1.23;;
45073;SDS011;31570;51.688;5.860;2022-11-15T11:55:49;2.08;;;1.58;;
45073;SDS011;31570;51.688;5.860;2022-11-15T11:58:20;1.90;;;1.20;;
45073;SDS011;31570;51.688;5.860;2022-11-15T12:01:14;3.20;;;1.63;;
45073;SDS011;31570;51.688;5.860;2022-11-15T12:06:35;2.63;;;1.33;;
45073;SDS011;31570;51.688;5.860;2022-11-15T12:09:11;1.50;;;0.90;;
45073;SDS011;31570;51.688;5.860;2022-11-15T12:11:47;3.90;;;1.83;;
45073;SDS011;31570;51.688;5.860;2022-11-15T12:14:24;3.78;;;1.27;;
45073;SDS011;31570;51.688;5.860;2022-11-15T12:16:56;2.33;;;1.20;;
45073;SDS011;31570;51.688;5.860;2022-11-15T12:19:23;2.00;;;1.30;;
45073;SDS011;31570;51.688;5.860;2022-11-15T12:24:34;2.72;;;1.60;;
45073;SDS011;31570;51.688;5.860;2022-11-15T12:27:22;3.72;;;1.55;;
45073;SDS011;31570;51.688;5.860;2022-11-15T12:30:00;2.47;;;1.20;;
45073;SDS011;31570;51.688;5.860;2022-11-15T12:32:34;2.35;;;1.13;;
45073;SDS011;31570;51.688;5.860;2022-11-15T12:35:05;3.15;;;1.35;;
45073;SDS011;31570;51.688;5.860;2022-11-15T12:37:53;2.35;;;1.13;;
45073;SDS011;31570;51.688;5.860;2022-11-15T12:40:25;2.42;;;1.20;;
45073;SDS011;31570;51.688;5.860;2022-11-15T12:42:58;1.85;;;1.20;;
45073;SDS011;31570;51.688;5.860;2022-11-15T13:04:16;1.80;;;1.20;;
45073;SDS011;31570;51.688;5.860;2022-11-15T13:07:02;2.67;;;1.40;;
45073;SDS011;31570;51.688;5.860;2022-11-15T13:12:47;1.83;;;1.20;;
45073;SDS011;31570;51.688;5.860;2022-11-15T13:15:01;2.15;;;1.17;;
45073;SDS011;31570;51.688;5.860;2022-11-15T13:17:51;2.30;;;1.38;;
45073;SDS011;31570;51.688;5.860;2022-11-15T13:20:23;2.15;;;1.30;;
45073;SDS011;31570;51.688;5.860;2022-11-15T13:23:00;1.88;;;1.00;;
45073;SDS011;31570;51.688;5.860;2022-11-15T13:30:54;2.92;;;1.30;;
45073;SDS011;31570;51.688;5.860;2022-11-15T13:33:33;1.67;;;0.90;;
45073;SDS011;31570;51.688;5.860;2022-11-15T13:36:03;5.72;;;1.40;;
45073;SDS011;31570;51.688;5.860;2022-11-15T13:38:34;2.42;;;1.05;;
45073;SDS011;31570;51.688;5.860;2022-11-15T13:44:00;3.03;;;1.40;;
45073;SDS011;31570;51.688;5.860;2022-11-15T13:46:28;2.45;;;1.10;;
45073;SDS011;31570;51.688;5.860;2022-11-15T13:49:04;2.13;;;1.25;;
45073;SDS011;31570;51.688;5.860;2022-11-15T13:54:23;2.15;;;1.15;;
45073;SDS011;31570;51.688;5.860;2022-11-15T13:57:12;3.03;;;1.20;;
45073;SDS011;31570;51.688;5.860;2022-11-15T13:59:49;1.83;;;1.02;;
45073;SDS011;31570;51.688;5.860;2022-11-15T14:02:29;2.58;;;1.20;;
45073;SDS011;31570;51.688;5.860;2022-11-15T14:05:17;1.60;;;1.00;;
45073;SDS011;31570;51.688;5.860;2022-11-15T14:10:44;2.38;;;1.23;;
45073;SDS011;31570;51.688;5.860;2022-11-15T14:13:25;1.98;;;1.02;;
45073;SDS011;31570;51.688;5.860;2022-11-15T14:16:19;2.05;;;1.17;;
45073;SDS011;31570;51.688;5.860;2022-11-15T14:18:50;2.08;;;0.90;;
45073;SDS011;31570;51.688;5.860;2022-11-15T14:21:18;1.85;;;1.10;;
45073;SDS011;31570;51.688;5.860;2022-11-15T14:23:45;1.73;;;0.90;;
45073;SDS011;31570;51.688;5.860;2022-11-15T14:26:28;1.65;;;0.95;;
45073;SDS011;31570;51.688;5.860;2022-11-15T14:31:48;1.92;;;1.15;;
45073;SDS011;31570;51.688;5.860;2022-11-15T14:34:14;2.55;;;1.05;;
45073;SDS011;31570;51.688;5.860;2022-11-15T14:36:40;1.73;;;1.00;;
45073;SDS011;31570;51.688;5.860;2022-11-15T14:39:07;1.83;;;1.00;;
45073;SDS011;31570;51.688;5.860;2022-11-15T14:41:34;2.70;;;1.08;;
45073;SDS011;31570;51.688;5.860;2022-11-15T14:44:04;1.70;;;0.85;;
45073;SDS011;31570;51.688;5.860;2022-11-15T14:46:34;2.55;;;1.00;;
45073;SDS011;31570;51.688;5.860;2022-11-15T14:49:00;1.42;;;0.90;;
45073;SDS011;31570;51.688;5.860;2022-11-15T14:51:27;1.88;;;0.80;;
45073;SDS011;31570;51.688;5.860;2022-11-15T14:53:53;2.35;;;1.10;;
45073;SDS011;31570;51.688;5.860;2022-11-15T14:56:21;1.63;;;0.85;;
45073;SDS011;31570;51.688;5.860;2022-11-15T14:58:49;1.42;;;0.80;;
45073;SDS011;31570;51.688;5.860;2022-11-15T15:01:23;1.27;;;0.80;;
45073;SDS011;31570;51.688;5.860;2022-11-15T15:03:52;1.95;;;0.90;;
45073;SDS011;31570;51.688;5.860;2022-11-15T15:06:22;1.95;;;1.02;;
45073;SDS011;31570;51.688;5.860;2022-11-15T15:08:48;1.55;;;0.73;;
45073;SDS011;31570;51.688;5.860;2022-11-15T15:11:21;1.35;;;0.95;;
45073;SDS011;31570;51.688;5.860;2022-11-15T15:13:55;1.88;;;0.88;;
45073;SDS011;31570;51.688;5.860;2022-11-15T15:16:24;3.08;;;1.17;;
45073;SDS011;31570;51.688;5.860;2022-11-15T15:18:51;2.33;;;1.00;;
45073;SDS011;31570;51.688;5.860;2022-11-15T15:21:22;1.77;;;1.13;;
45073;SDS011;31570;51.688;5.860;2022-11-15T15:23:50;1.83;;;1.17;;
45073;SDS011;31570;51.688;5.860;2022-11-15T15:26:20;1.02;;;0.70;;
45073;SDS011;31570;51.688;5.860;2022-11-15T15:28:48;1.67;;;0.80;;
45073;SDS011;31570;51.688;5.860;2022-11-15T15:31:17;1.65;;;0.80;;
45073;SDS011;31570;51.688;5.860;2022-11-15T15:33:44;1.30;;;0.70;;
45073;SDS011;31570;51.688;5.860;2022-11-15T15:36:17;1.35;;;0.65;;
45073;SDS011;31570;51.688;5.860;2022-11-15T15:38:45;1.15;;;0.80;;
45073;SDS011;31570;51.688;5.860;2022-11-15T15:41:13;4.43;;;1.38;;
45073;SDS011;31570;51.688;5.860;2022-11-15T15:43:41;2.30;;;0.90;;
45073;SDS011;31570;51.688;5.860;2022-11-15T15:46:12;1.70;;;0.80;;
45073;SDS011;31570;51.688;5.860;2022-11-15T15:48:42;2.25;;;1.02;;
45073;SDS011;31570;51.688;5.860;2022-11-15T15:51:09;2.80;;;0.80;;
45073;SDS011;31570;51.688;5.860;2022-11-15T15:53:45;2.00;;;0.90;;
45073;SDS011;31570;51.688;5.860;2022-11-15T15:56:12;1.52;;;0.70;;
45073;SDS011;31570;51.688;5.860;2022-11-15T15:58:38;0.90;;;0.63;;
45073;SDS011;31570;51.688;5.860;2022-11-15T16:01:04;2.50;;;1.00;;
45073;SDS011;31570;51.688;5.860;2022-11-15T16:03:31;1.75;;;0.73;;
45073;SDS011;31570;51.688;5.860;2022-11-15T16:05:57;2.25;;;1.00;;
45073;SDS011;31570;51.688;5.860;2022-11-15T16:08:24;1.95;;;0.90;;
45073;SDS011;31570;51.688;5.860;2022-11-15T16:11:03;1.73;;;0.85;;
